Flight Track Log - Related Links

Times and Time Zones

All times are in EDT time to prevent confusion due to time zone crossing. See the CES5390 flight status page for this flight to view local times or setup timezone preferences in your user account.

Time Position Orientation Groundspeed Altitude Reporting Facility
EDT Latitude Longitude Course Direction KTS MPH feet Rate Location/Type
Wed 10:14:00 PM 34.0584 114.3075 113° Southeast  Level Estimated
Wed 10:15:00 PM 34.0147 114.4264 114° Southeast  Level Estimated
Wed 10:16:00 PM 33.9709 114.5452 114° Southeast  Level Estimated
Wed 10:17:00 PM 33.9271 114.6639 114° Southeast  Level Estimated
Wed 10:18:00 PM 33.8830 114.7824 114° Southeast  Level Estimated
Wed 10:19:00 PM 33.8389 114.9008 114° Southeast  Level Estimated
Wed 10:20:00 PM 33.7947 115.0191 114° Southeast  Level Estimated
Wed 10:21:00 PM 33.7504 115.1373 114° Southeast  Level Estimated
Wed 10:22:00 PM 33.7059 115.2553 114° Southeast  Level Estimated
Wed 10:23:00 PM 33.6614 115.3733 114° Southeast  Level Estimated
Wed 10:24:00 PM 33.6167 115.4911 114° Southeast  Level Estimated
Wed 10:25:00 PM 33.5719 115.6088 115° Southeast  Level Estimated
Wed 10:26:00 PM 33.5270 115.7263 115° Southeast  Level Estimated
Wed 10:27:00 PM 33.4820 115.8438 115° Southeast  Level Estimated
Wed 10:28:00 PM 33.4369 115.9611 115° Southeast  Level Estimated
Wed 10:29:00 PM 33.3916 116.0783 115° Southeast  Level Estimated
Wed 10:30:00 PM 33.3463 116.1954 115° Southeast  Level Estimated
Wed 10:31:00 PM 33.3008 116.3123 115° Southeast  Level Estimated
Wed 10:32:00 PM 33.2553 116.4291 115° Southeast  Level Estimated
Wed 10:33:00 PM 33.2096 116.5458 115° Southeast  Level Estimated
Wed 10:34:00 PM 33.1638 116.6624 115° Southeast  Level Estimated
Wed 10:35:00 PM 33.1179 116.7789 115° Southeast  Level Estimated
Wed 10:36:00 PM 33.0719 116.8952 115° Southeast  Level Estimated
Wed 10:37:00 PM 33.0258 117.0115 115° Southeast  Level Estimated
Wed 10:38:00 PM 32.9796 117.1275 115° Southeast  Level Estimated
Wed 10:39:00 PM 32.9333 117.2435 115° Southeast  Level Estimated
Wed 10:40:00 PM 32.8869 117.3594 115° Southeast  Level Estimated
Wed 10:41:00 PM 32.8404 117.4751 116° Southeast  Level Estimated
Wed 10:42:00 PM 32.7937 117.5907 116° Southeast  Level Estimated
Wed 10:43:00 PM 32.7470 117.7062 116° Southeast  Level Estimated
Wed 10:44:00 PM 32.7001 117.8216 116° Southeast  Level Estimated
Wed 10:45:00 PM 32.6532 117.9369 116° Southeast  Level Estimated
Wed 10:46:00 PM 32.6061 118.0520 116° Southeast  Level Estimated
Wed 10:47:00 PM 32.5589 118.1670 116° Southeast  Level Estimated
Wed 10:48:00 PM 32.5117 118.2819 116° Southeast  Level Estimated
Wed 10:49:00 PM 32.4643 118.3966 116° Southeast  Level Estimated
Wed 10:50:00 PM 32.4168 118.5113 116° Southeast  Level Estimated
Wed 10:51:00 PM 32.3692 118.6258 116° Southeast  Level Estimated
Wed 10:52:00 PM 32.3216 118.7402 116° Southeast  Level Estimated
Wed 10:53:00 PM 32.2738 118.8545 116° Southeast  Level Estimated
Wed 10:54:00 PM 32.2259 118.9687 116° Southeast  Level Estimated
Wed 10:55:00 PM 32.1779 119.0827 116° Southeast  Level Estimated
Wed 10:56:00 PM 32.1298 119.1966 116° Southeast  Level Estimated
Wed 10:57:00 PM 32.0816 119.3104 117° Southeast  Level Estimated
Wed 10:58:00 PM 32.0333 119.4241 117° Southeast  Level Estimated
Wed 10:59:00 PM 31.9849 119.5377 117° Southeast  Level Estimated
Wed 11:00:00 PM 31.9364 119.6511 117° Southeast  Level Estimated
Wed 11:01:00 PM 31.8878 119.7644 117° Southeast  Level Estimated
Wed 11:02:00 PM 31.8391 119.8776 117° Southeast  Level Estimated
Wed 11:03:00 PM 31.7903 119.9907 117° Southeast  Level Estimated
Wed 11:04:00 PM 31.7414 120.1037 117° Southeast  Level Estimated
Wed 11:05:00 PM 31.6924 120.2165 117° Southeast  Level Estimated
Wed 11:06:00 PM 31.6433 120.3292 117° Southeast  Level Estimated
Wed 11:07:00 PM 31.5941 120.4418 117° Southeast  Level Estimated
Wed 11:08:00 PM 31.5448 120.5543 117° Southeast  Level Estimated
Wed 11:09:00 PM 31.4954 120.6667 117° Southeast  Level Estimated
Wed 11:10:00 PM 31.4459 120.7789 117° Southeast  Level Estimated
Wed 11:11:00 PM 31.3963 120.8911 117° Southeast  Level Estimated
Wed 11:12:00 PM 31.3466 121.0031 117° Southeast  Level Estimated
Wed 11:13:00 PM 31.2968 121.1150 117° Southeast  Level Estimated
Wed 11:14:00 PM 31.2469 121.2268 118° Southeast  Level Estimated
Wed 11:15:00 PM 31.1979 121.3363 118° Southeast  Level Estimated
Wed 11:16:00 PM 31.1979 121.3363 North  Level Estimated
Wed 11:17:00 PM 31.1979 121.3363 North  Level Estimated
Wed 11:18:00 PM 31.1979 121.3363 North  Level Estimated
Wed 11:19:00 PM 31.1979 121.3363 North  Level Estimated
Wed 11:19:16 PM 31.4212 121.0527 65° Northeast 208 239 5,700  Level FlightAware ADS-B (ZSSS / SHA)
Wed 11:19:30 PM 31.4268 121.0666 64° Northeast 211 243 5,400 -515 Descending FlightAware ADS-B (ZSSS / SHA)
Wed 11:26:27 PM 31.3077 121.3304 177° South 159 183 2,000 -486 Descending FlightAware ADS-B (ZSSS / SHA)
Wed 11:26:42 PM 31.2981 121.3308 176° South 144 166 1,900 -600 Descending FlightAware ADS-B (ZSSS / SHA)
Wed 11:26:57 PM 31.2884 121.3314 177° South 140 161 1,700 -800 Descending FlightAware ADS-B (ZSSS / SHA)
Wed 11:27:12 PM 31.2785 121.3318 177° South 135 155 1,500 -581 Descending FlightAware ADS-B (ZSSS / SHA)
Wed 11:27:28 PM 31.2695 121.3324 176° South 129 148 1,400 -615 Descending FlightAware ADS-B (ZSSS / SHA)
Wed 11:27:51 PM 31.2556 121.3332 176° South 131 151 1,100 -615 Descending FlightAware ADS-B (ZSSS / SHA)
Wed 11:28:07 PM 31.2462 121.3337 177° South 134 154 1,000 -581 Descending FlightAware ADS-B (ZSSS / SHA)
Wed 11:28:22 PM 31.2368 121.3342 175° South 128 147 800 -800 Descending FlightAware ADS-B (ZSSS / SHA)
Wed 11:30:00 PM 31.1979 121.3363 177° South  Level Estimated

Login

Don't have an account? Register now (free) for customized features, flight alerts, and more!